Purmerend, Netherlands
Current Conditions -  °F | °C
As of 9:25 AM on Sunday 21 Dec 2014 (Local Time) from EHAM Reporting Station
Overcast Overcast  
Wind Chill: 39°   Ceiling: 4300
Heat Index: 45°   Visibility: 6mi
Dew Point: 43°   Wind: 12mph
Humidity: 93%   Direction: 220°SW
Pressure: 30.3"   Gusts: NA
Location:  52.51°N, 4.96°E
Report Text: EHAM 210825Z 22010KT 9999 SCT014 OVC043 07/06 Q1026 NOSIG
Loading
Personal Weather Stations






























Interactive Weather Map New forecast layout! Learn more

10-Day Weather Forecast

Advertisements
Track Severe Weather on mobile